createdAt,value
2023-05-21T00:00:26.094Z,25.00
2023-05-21T00:01:26.094Z,25.00
2023-05-21T00:02:26.142Z,25.00
2023-05-21T00:03:26.201Z,0.07
2023-05-21T00:04:26.128Z,0.00
2023-05-21T00:05:26.162Z,0.00
2023-05-21T00:06:26.217Z,0.00
2023-05-21T00:07:26.216Z,0.00
2023-05-21T00:08:26.237Z,0.00
2023-05-21T00:09:26.268Z,13.30
2023-05-21T00:10:26.297Z,25.00
2023-05-21T00:11:26.388Z,25.17
2023-05-21T00:12:26.353Z,25.00
2023-05-21T00:13:26.387Z,25.00
2023-05-21T00:14:26.400Z,23.36
2023-05-21T00:15:26.431Z,26.08
2023-05-21T00:16:26.567Z,27.79
2023-05-21T00:17:26.518Z,26.19
2023-05-21T00:18:26.511Z,27.64
2023-05-21T00:19:26.656Z,25.00
2023-05-21T00:20:26.569Z,25.65
2023-05-21T00:21:26.681Z,25.85
2023-05-21T00:22:26.630Z,25.47
2023-05-21T00:23:26.661Z,25.00
2023-05-21T00:24:26.674Z,27.62
2023-05-21T00:25:26.705Z,25.00
2023-05-21T00:26:26.734Z,26.27
2023-05-21T00:27:26.783Z,25.51
2023-05-21T00:28:26.790Z,25.00
2023-05-21T00:29:26.808Z,25.38
2023-05-21T00:30:26.840Z,26.21
2023-05-21T00:31:26.907Z,26.14
2023-05-21T00:32:26.914Z,26.68
2023-05-21T00:33:26.934Z,25.00
2023-05-21T00:34:26.961Z,26.07
2023-05-21T00:35:26.993Z,28.00
2023-05-21T00:36:27.024Z,28.47
2023-05-21T00:37:27.061Z,25.56
2023-05-21T00:38:27.096Z,26.85
2023-05-21T00:39:27.121Z,27.89
2023-05-21T00:40:27.164Z,25.88
2023-05-21T00:41:27.188Z,25.52
2023-05-21T00:42:27.226Z,28.18
2023-05-21T00:43:27.267Z,25.00
2023-05-21T00:44:27.277Z,26.31
2023-05-21T00:45:27.369Z,25.00
2023-05-21T00:46:27.360Z,26.21
2023-05-21T00:47:27.380Z,27.66
2023-05-21T00:48:27.378Z,25.16
2023-05-21T00:49:27.408Z,27.04
2023-05-21T00:50:27.467Z,25.19
2023-05-21T00:51:27.469Z,30.01
2023-05-21T00:52:27.494Z,25.21
2023-05-21T00:53:27.534Z,25.66
2023-05-21T00:54:27.546Z,30.13
2023-05-21T00:55:27.674Z,29.84
2023-05-21T00:56:27.622Z,29.09
2023-05-21T00:57:27.644Z,26.34
2023-05-21T00:58:27.675Z,26.84
2023-05-21T00:59:27.732Z,29.26
2023-05-21T01:00:27.754Z,25.69
2023-05-21T01:01:27.917Z,26.80
2023-05-21T01:02:27.850Z,27.83
2023-05-21T01:03:27.994Z,26.90
2023-05-21T01:04:27.860Z,25.91
2023-05-21T01:05:27.896Z,26.77
2023-05-21T01:06:27.967Z,25.01
2023-05-21T01:07:27.942Z,26.53
2023-05-21T01:08:27.964Z,26.77
2023-05-21T01:09:28.015Z,26.73
2023-05-21T01:10:28.056Z,25.00
2023-05-21T01:11:28.040Z,29.59
2023-05-21T01:12:28.069Z,26.33
2023-05-21T01:13:28.096Z,25.00
2023-05-21T01:14:28.125Z,27.28
2023-05-21T01:15:28.235Z,25.00
2023-05-21T01:16:28.188Z,28.20
2023-05-21T01:17:28.227Z,28.67
2023-05-21T01:18:28.295Z,27.36
2023-05-21T01:19:28.281Z,27.07
2023-05-21T01:20:28.271Z,26.18
2023-05-21T01:21:28.325Z,28.04
2023-05-21T01:22:28.323Z,27.27
2023-05-21T01:23:28.344Z,25.00
2023-05-21T01:24:28.370Z,28.71
2023-05-21T01:25:28.398Z,28.82
2023-05-21T01:26:28.426Z,29.26
2023-05-21T01:27:28.449Z,25.64
2023-05-21T01:28:28.488Z,28.80
2023-05-21T01:29:28.505Z,28.20
2023-05-21T01:30:28.539Z,28.31
2023-05-21T01:31:28.589Z,28.21
2023-05-21T01:32:28.597Z,27.12
2023-05-21T01:33:28.660Z,29.04
2023-05-21T01:34:28.650Z,30.32
2023-05-21T01:35:28.693Z,29.71
2023-05-21T01:36:28.726Z,26.85
2023-05-21T01:37:28.745Z,26.02
2023-05-21T01:38:28.777Z,30.83
2023-05-21T01:39:28.809Z,28.75
2023-05-21T01:40:28.831Z,29.43
2023-05-21T01:41:28.858Z,30.54
2023-05-21T01:42:28.887Z,28.25
2023-05-21T01:43:28.910Z,31.00
2023-05-21T01:44:28.951Z,26.93
2023-05-21T01:45:28.985Z,30.61
2023-05-21T01:46:29.047Z,27.89
2023-05-21T01:47:29.090Z,32.36
2023-05-21T01:48:29.075Z,29.42
2023-05-21T01:49:29.099Z,28.05
2023-05-21T01:50:29.132Z,29.75
2023-05-21T01:51:29.161Z,28.89
2023-05-21T01:52:29.261Z,29.14
2023-05-21T01:53:29.230Z,29.33
2023-05-21T01:54:29.269Z,27.97
2023-05-21T01:55:29.305Z,28.40
2023-05-21T01:56:29.342Z,27.38
2023-05-21T01:57:29.371Z,26.86
2023-05-21T01:58:29.399Z,30.01
2023-05-21T01:59:29.436Z,27.76
2023-05-21T02:00:29.508Z,29.02
2023-05-21T02:01:29.555Z,27.57
2023-05-21T02:02:29.622Z,28.88
2023-05-21T02:03:29.660Z,30.01
2023-05-21T02:04:29.583Z,29.57
2023-05-21T02:05:29.616Z,27.63
2023-05-21T02:06:29.639Z,27.06
2023-05-21T02:07:29.670Z,26.99
2023-05-21T02:08:29.702Z,27.72
2023-05-21T02:09:29.742Z,28.03
2023-05-21T02:10:29.769Z,27.97
2023-05-21T02:11:29.800Z,27.32
2023-05-21T02:12:29.873Z,27.65
2023-05-21T02:13:29.887Z,27.60
2023-05-21T02:14:29.902Z,27.25
2023-05-21T02:15:29.953Z,29.61
2023-05-21T02:16:30.092Z,28.13
2023-05-21T02:17:30.050Z,28.44
2023-05-21T02:18:30.041Z,28.83
2023-05-21T02:19:30.539Z,28.45
2023-05-21T02:20:30.114Z,30.38
2023-05-21T02:21:30.144Z,29.23
2023-05-21T02:22:30.181Z,26.41
2023-05-21T02:23:30.231Z,27.65
2023-05-21T02:24:30.253Z,29.79
2023-05-21T02:25:30.292Z,27.77
2023-05-21T02:26:30.341Z,27.26
2023-05-21T02:27:30.357Z,29.88
2023-05-21T02:28:30.399Z,27.63
2023-05-21T02:29:30.420Z,29.10
2023-05-21T02:30:30.455Z,30.13
2023-05-21T02:31:30.497Z,29.11
2023-05-21T02:32:30.626Z,29.11
2023-05-21T02:33:30.555Z,25.81
2023-05-21T02:34:30.653Z,27.72
2023-05-21T02:35:30.655Z,27.81
2023-05-21T02:36:30.660Z,28.28
2023-05-21T02:37:30.687Z,31.63
2023-05-21T02:38:30.731Z,28.91
2023-05-21T02:39:30.767Z,27.00
2023-05-21T02:40:30.800Z,27.20
2023-05-21T02:41:30.843Z,26.64
2023-05-21T02:42:30.873Z,26.56
2023-05-21T02:43:30.913Z,29.34
2023-05-21T02:44:30.948Z,29.87
2023-05-21T02:45:31.053Z,31.75
2023-05-21T02:46:31.059Z,29.74
2023-05-21T02:47:31.060Z,26.55
2023-05-21T02:48:31.113Z,30.30
2023-05-21T02:49:31.109Z,29.15
2023-05-21T02:50:31.133Z,27.33
2023-05-21T02:51:31.199Z,28.79
2023-05-21T02:52:31.198Z,28.41
2023-05-21T02:53:31.261Z,27.37
2023-05-21T02:54:31.292Z,27.97
2023-05-21T02:55:31.319Z,28.76
2023-05-21T02:56:31.327Z,29.34
2023-05-21T02:57:31.359Z,27.44
2023-05-21T02:58:31.393Z,28.25
2023-05-21T02:59:31.431Z,30.29
2023-05-21T03:00:31.459Z,29.03
2023-05-21T03:01:31.594Z,27.60
2023-05-21T03:02:31.576Z,29.02
2023-05-21T03:03:31.665Z,27.58
2023-05-21T03:04:31.598Z,28.27
2023-05-21T03:05:31.631Z,30.35
2023-05-21T03:06:31.667Z,29.34
2023-05-21T03:07:31.750Z,32.05
2023-05-21T03:08:31.732Z,29.70
2023-05-21T03:09:31.759Z,28.60
2023-05-21T03:10:31.789Z,28.85
2023-05-21T03:11:31.823Z,28.58
2023-05-21T03:12:31.860Z,28.33
2023-05-21T03:13:31.895Z,29.83
2023-05-21T03:14:31.962Z,32.31
2023-05-21T03:15:31.962Z,27.87
2023-05-21T03:16:32.004Z,28.68
2023-05-21T03:17:32.053Z,29.48
2023-05-21T03:18:32.060Z,31.49
2023-05-21T03:19:32.137Z,28.70
2023-05-21T03:20:32.128Z,30.46
2023-05-21T03:21:32.154Z,28.83
2023-05-21T03:22:32.191Z,28.32
2023-05-21T03:23:32.241Z,30.23
2023-05-21T03:24:32.245Z,30.96
2023-05-21T03:25:32.279Z,31.48
2023-05-21T03:26:32.327Z,28.02
2023-05-21T03:27:32.345Z,28.84
2023-05-21T03:28:32.387Z,29.07
2023-05-21T03:29:32.410Z,29.35
2023-05-21T03:30:32.448Z,30.53
2023-05-21T03:31:32.537Z,30.56
2023-05-21T03:32:32.528Z,29.05
2023-05-21T03:33:32.563Z,31.63
2023-05-21T03:34:32.598Z,29.38
2023-05-21T03:35:32.626Z,30.97
2023-05-21T03:36:32.659Z,28.93
2023-05-21T03:37:32.715Z,29.67
2023-05-21T03:38:32.852Z,30.63
2023-05-21T03:39:32.781Z,31.09
2023-05-21T03:40:32.791Z,29.98
2023-05-21T03:41:32.826Z,30.75
2023-05-21T03:42:32.868Z,32.38
2023-05-21T03:43:32.904Z,31.64
2023-05-21T03:44:32.984Z,27.81
2023-05-21T03:45:33.005Z,31.74
2023-05-21T03:46:33.122Z,30.97
2023-05-21T03:47:33.054Z,27.79
2023-05-21T03:48:33.072Z,28.10
2023-05-21T03:49:33.101Z,29.12
2023-05-21T03:50:33.137Z,27.29
2023-05-21T03:51:33.188Z,28.92
2023-05-21T03:52:33.219Z,30.01
2023-05-21T03:53:33.291Z,29.53
2023-05-21T03:54:33.294Z,30.53
2023-05-21T03:55:33.399Z,29.62
2023-05-21T03:56:33.367Z,29.00
2023-05-21T03:57:33.399Z,27.98
2023-05-21T03:58:33.429Z,29.58
2023-05-21T03:59:33.480Z,30.30
2023-05-21T04:00:33.506Z,27.93
2023-05-21T04:01:33.519Z,29.08
2023-05-21T04:02:33.674Z,30.05
2023-05-21T04:03:33.830Z,29.83
2023-05-21T04:04:33.653Z,31.79
2023-05-21T04:05:33.754Z,27.60
2023-05-21T04:06:33.700Z,29.55
2023-05-21T04:07:33.736Z,28.55
2023-05-21T04:08:33.778Z,31.15
2023-05-21T04:09:36.532Z,29.49
2023-05-21T04:10:33.802Z,32.69
2023-05-21T04:11:33.850Z,30.93
2023-05-21T04:12:33.790Z,32.23
2023-05-21T04:13:33.799Z,31.62
2023-05-21T04:14:33.782Z,29.23
2023-05-21T04:15:33.930Z,29.77
2023-05-21T04:16:33.851Z,31.32
2023-05-21T04:17:33.800Z,30.78
2023-05-21T04:18:33.768Z,31.82
2023-05-21T04:19:33.927Z,28.82
2023-05-21T04:20:33.758Z,29.07
2023-05-21T04:21:33.772Z,29.55
2023-05-21T04:22:33.752Z,28.76
2023-05-21T04:23:33.730Z,31.21
2023-05-21T04:24:33.739Z,29.46
2023-05-21T04:25:33.796Z,30.47
2023-05-21T04:26:33.723Z,28.78
2023-05-21T04:27:33.756Z,29.97
2023-05-21T04:28:33.693Z,27.26
2023-05-21T04:29:33.699Z,30.07
2023-05-21T04:30:33.701Z,28.13
2023-05-21T04:31:33.737Z,30.13
2023-05-21T04:32:33.701Z,31.52
2023-05-21T04:33:33.663Z,31.04
2023-05-21T04:34:33.669Z,28.55
2023-05-21T04:35:33.840Z,30.53
2023-05-21T04:36:33.677Z,29.37
2023-05-21T04:37:33.627Z,30.49
2023-05-21T04:38:33.631Z,28.23
2023-05-21T04:39:33.618Z,29.26
2023-05-21T04:40:33.618Z,30.29
2023-05-21T04:41:33.617Z,30.44
2023-05-21T04:42:33.604Z,30.34
2023-05-21T04:43:33.630Z,31.50
2023-05-21T04:44:33.599Z,30.44
2023-05-21T04:45:33.653Z,30.96
2023-05-21T04:46:33.599Z,27.98
2023-05-21T04:47:33.602Z,29.61
2023-05-21T04:48:33.556Z,30.49
2023-05-21T04:49:33.542Z,27.93
2023-05-21T04:50:33.518Z,29.65
2023-05-21T04:51:33.525Z,30.26
2023-05-21T04:52:33.497Z,30.21
2023-05-21T04:53:33.486Z,30.85
2023-05-21T04:54:33.492Z,27.51
2023-05-21T04:55:33.470Z,28.44
2023-05-21T04:56:33.464Z,28.13
2023-05-21T04:57:33.462Z,30.87
2023-05-21T04:58:33.431Z,28.69
2023-05-21T04:59:33.465Z,30.26
2023-05-21T05:00:33.458Z,30.39
2023-05-21T05:01:33.453Z,30.70
2023-05-21T05:02:33.439Z,27.93
2023-05-21T05:03:33.452Z,28.14
2023-05-21T05:04:33.378Z,28.52
2023-05-21T05:05:33.359Z,31.51
2023-05-21T05:06:33.346Z,27.72
2023-05-21T05:07:33.336Z,27.95
2023-05-21T05:08:33.367Z,28.79
2023-05-21T05:09:33.311Z,30.98
2023-05-21T05:10:33.308Z,29.09
2023-05-21T05:11:33.333Z,28.79
2023-05-21T05:12:33.369Z,27.53
2023-05-21T05:13:33.409Z,29.06
2023-05-21T05:14:33.458Z,31.22
2023-05-21T05:15:33.639Z,28.65
2023-05-21T05:16:33.567Z,29.69
2023-05-21T05:17:33.565Z,26.32
2023-05-21T05:18:33.580Z,28.16
2023-05-21T05:19:33.686Z,28.66
2023-05-21T05:20:33.650Z,31.01
2023-05-21T05:21:33.687Z,29.05
2023-05-21T05:22:33.718Z,29.47
2023-05-21T05:23:33.762Z,28.05
2023-05-21T05:24:33.795Z,30.75
2023-05-21T05:25:33.819Z,29.38
2023-05-21T05:26:33.857Z,32.05
2023-05-21T05:27:35.015Z,28.40
2023-05-21T05:28:33.883Z,30.43
2023-05-21T05:29:33.878Z,32.38
2023-05-21T05:30:33.908Z,33.37
2023-05-21T05:31:33.913Z,30.81
2023-05-21T05:32:33.892Z,32.26
2023-05-21T05:33:33.847Z,31.87
2023-05-21T05:34:33.827Z,30.69
2023-05-21T05:35:33.955Z,29.53
2023-05-21T05:36:33.833Z,29.51
2023-05-21T05:37:33.818Z,30.30
2023-05-21T05:38:33.794Z,28.77
2023-05-21T05:39:33.790Z,27.98
2023-05-21T05:40:33.781Z,30.36
2023-05-21T05:41:33.781Z,28.89
2023-05-21T05:42:33.768Z,30.64
2023-05-21T05:43:33.767Z,28.16
2023-05-21T05:44:33.758Z,28.82
2023-05-21T05:45:33.754Z,27.98
2023-05-21T05:46:33.815Z,30.11
2023-05-21T05:47:33.817Z,30.06
2023-05-21T05:48:33.729Z,30.47
2023-05-21T05:49:33.719Z,31.02
2023-05-21T05:50:33.710Z,28.97
2023-05-21T05:51:33.697Z,28.72
2023-05-21T05:52:33.692Z,29.43
2023-05-21T05:53:33.690Z,29.88
2023-05-21T05:54:33.674Z,29.14
2023-05-21T05:55:33.706Z,30.92
2023-05-21T05:56:33.661Z,30.58
2023-05-21T05:57:33.651Z,27.61
2023-05-21T05:58:33.648Z,30.19
2023-05-21T05:59:33.641Z,29.15
2023-05-21T06:00:33.627Z,27.60
2023-05-21T06:01:33.638Z,30.19
2023-05-21T06:02:33.723Z,28.27
2023-05-21T06:03:33.821Z,30.16
2023-05-21T06:04:33.594Z,28.76
2023-05-21T06:05:33.642Z,27.77
2023-05-21T06:06:33.582Z,30.46
2023-05-21T06:07:33.590Z,28.48
2023-05-21T06:08:34.491Z,30.19
2023-05-21T06:09:33.555Z,32.99
2023-05-21T06:10:33.549Z,27.90
2023-05-21T06:11:33.541Z,30.34
2023-05-21T06:12:33.528Z,31.39
2023-05-21T06:13:33.527Z,32.64
2023-05-21T06:14:33.521Z,28.71
2023-05-21T06:15:33.553Z,29.00
2023-05-21T06:16:33.583Z,31.06
2023-05-21T06:17:33.582Z,30.10
2023-05-21T06:18:33.502Z,32.43
2023-05-21T06:19:33.538Z,28.15
2023-05-21T06:20:33.469Z,28.92
2023-05-21T06:21:33.467Z,29.39
2023-05-21T06:22:33.461Z,29.36
2023-05-21T06:23:33.444Z,28.14
2023-05-21T06:24:33.442Z,27.51
2023-05-21T06:25:33.441Z,29.35
2023-05-21T06:26:33.422Z,26.45
2023-05-21T06:27:33.407Z,29.73
2023-05-21T06:28:33.407Z,30.60
2023-05-21T06:29:33.410Z,28.47
2023-05-21T06:30:33.393Z,29.93
2023-05-21T06:31:33.546Z,30.37
2023-05-21T06:32:33.466Z,28.39
2023-05-21T06:33:33.449Z,31.26
2023-05-21T06:34:33.368Z,31.18
2023-05-21T06:35:33.427Z,28.56
2023-05-21T06:36:33.356Z,29.77
2023-05-21T06:37:33.356Z,26.59
2023-05-21T06:38:33.353Z,29.00
2023-05-21T06:39:33.349Z,29.33
2023-05-21T06:40:33.345Z,30.30
2023-05-21T06:41:33.331Z,30.29
2023-05-21T06:42:33.316Z,28.32
2023-05-21T06:43:33.330Z,28.19
2023-05-21T06:44:33.316Z,30.46
2023-05-21T06:45:33.324Z,31.51
2023-05-21T06:46:33.348Z,31.19
2023-05-21T06:47:33.311Z,29.91
2023-05-21T06:48:33.296Z,30.50
2023-05-21T06:49:33.279Z,29.11
2023-05-21T06:50:33.271Z,29.63
2023-05-21T06:51:33.283Z,29.37
2023-05-21T06:52:33.251Z,28.95
2023-05-21T06:53:33.252Z,28.17
2023-05-21T06:54:33.235Z,28.90
2023-05-21T06:55:33.237Z,29.63
2023-05-21T06:56:33.221Z,29.54
2023-05-21T06:57:33.216Z,28.72
2023-05-21T06:58:33.227Z,29.35
2023-05-21T06:59:33.213Z,29.20
2023-05-21T07:00:33.242Z,30.13
2023-05-21T07:01:33.305Z,29.17
2023-05-21T07:02:33.437Z,31.07
2023-05-21T07:03:33.376Z,31.46
2023-05-21T07:04:33.350Z,30.14
2023-05-21T07:05:33.437Z,31.60
2023-05-21T07:06:33.414Z,30.97
2023-05-21T07:07:33.471Z,29.36
2023-05-21T07:08:33.476Z,28.20
2023-05-21T07:09:33.495Z,30.46
2023-05-21T07:10:33.525Z,30.82
2023-05-21T07:11:33.558Z,31.58
2023-05-21T07:12:33.611Z,29.69
2023-05-21T07:13:34.248Z,30.06
2023-05-21T07:14:33.653Z,28.74
2023-05-21T07:15:33.700Z,29.95
2023-05-21T07:16:33.751Z,30.17
2023-05-21T07:17:33.778Z,31.21
2023-05-21T07:18:33.753Z,28.24
2023-05-21T07:19:33.840Z,29.73
2023-05-21T07:20:33.808Z,32.27
2023-05-21T07:21:33.837Z,28.78
2023-05-21T07:22:33.863Z,30.20
2023-05-21T07:23:33.913Z,29.27
2023-05-21T07:24:33.926Z,30.92
2023-05-21T07:25:33.968Z,32.51
2023-05-21T07:26:33.986Z,32.32
2023-05-21T07:27:33.993Z,29.04
2023-05-21T07:28:34.012Z,31.38
2023-05-21T07:29:34.037Z,31.72
2023-05-21T07:30:34.083Z,31.29
2023-05-21T07:31:34.227Z,30.69
2023-05-21T07:32:34.131Z,32.19
2023-05-21T07:33:34.132Z,31.55
2023-05-21T07:34:34.152Z,31.29
2023-05-21T07:35:34.412Z,30.11
2023-05-21T07:36:34.205Z,29.20
2023-05-21T07:37:34.291Z,30.56
2023-05-21T07:38:34.247Z,30.24
2023-05-21T07:39:34.376Z,30.71
2023-05-21T07:40:34.274Z,31.04
2023-05-21T07:41:34.305Z,30.89
2023-05-21T07:42:34.306Z,30.88
2023-05-21T07:43:34.334Z,32.65
2023-05-21T07:44:34.356Z,28.67
2023-05-21T07:45:34.538Z,29.94
2023-05-21T07:46:34.432Z,30.22
2023-05-21T07:47:34.446Z,28.77
2023-05-21T07:48:35.558Z,29.38
2023-05-21T07:49:34.428Z,30.17
2023-05-21T07:50:34.446Z,29.58
2023-05-21T07:51:34.481Z,31.25
2023-05-21T07:52:34.520Z,28.25
2023-05-21T07:53:34.505Z,28.32
2023-05-21T07:54:34.500Z,29.50
2023-05-21T07:55:34.724Z,26.71
2023-05-21T07:56:34.517Z,29.86
2023-05-21T07:57:34.534Z,29.58
2023-05-21T07:58:34.539Z,30.39
2023-05-21T07:59:34.566Z,29.06
2023-05-21T08:00:34.566Z,30.42
2023-05-21T08:01:34.583Z,30.66
2023-05-21T08:02:34.740Z,29.90
2023-05-21T08:03:34.803Z,28.69
2023-05-21T08:04:34.639Z,28.07
2023-05-21T08:05:34.909Z,27.77
2023-05-21T08:06:34.631Z,28.78
2023-05-21T08:07:34.670Z,27.41
2023-05-21T08:08:34.653Z,28.52
2023-05-21T08:09:34.704Z,30.36
2023-05-21T08:10:34.677Z,28.46
2023-05-21T08:11:34.705Z,30.59
2023-05-21T08:12:34.687Z,33.39
2023-05-21T08:13:34.696Z,29.99
2023-05-21T08:14:34.717Z,30.47
2023-05-21T08:15:34.785Z,28.69
2023-05-21T08:16:34.756Z,30.79
2023-05-21T08:17:34.745Z,30.12
2023-05-21T08:18:34.729Z,29.88
2023-05-21T08:19:34.864Z,28.37
2023-05-21T08:20:34.741Z,29.21
2023-05-21T08:21:34.737Z,30.39
2023-05-21T08:22:34.752Z,28.91
2023-05-21T08:23:34.768Z,28.33
2023-05-21T08:24:34.772Z,28.51
2023-05-21T08:25:34.915Z,29.11
2023-05-21T08:26:34.776Z,24.90
2023-05-21T08:27:34.801Z,26.89
2023-05-21T08:28:34.781Z,30.52
2023-05-21T08:29:34.790Z,28.13
2023-05-21T08:30:34.783Z,28.05
2023-05-21T08:31:34.815Z,28.88
2023-05-21T08:32:34.840Z,29.32
2023-05-21T08:33:34.779Z,29.19
2023-05-21T08:34:34.767Z,32.00
2023-05-21T08:35:34.936Z,30.58
2023-05-21T08:36:34.765Z,30.32
2023-05-21T08:37:34.764Z,27.45
2023-05-21T08:38:34.755Z,29.27
2023-05-21T08:39:34.755Z,30.53
2023-05-21T08:40:34.763Z,27.62
2023-05-21T08:41:34.755Z,31.72
2023-05-21T08:42:37.416Z,30.12
2023-05-21T08:43:34.777Z,33.90
2023-05-21T08:44:34.739Z,32.74
2023-05-21T08:45:34.933Z,31.29
2023-05-21T08:46:34.721Z,31.38
2023-05-21T08:47:34.724Z,31.17
2023-05-21T08:48:34.687Z,29.77
2023-05-21T08:49:34.676Z,30.40
2023-05-21T08:50:34.667Z,31.25
2023-05-21T08:51:34.651Z,32.98
2023-05-21T08:52:34.631Z,31.91
2023-05-21T08:53:34.667Z,31.06
2023-05-21T08:54:34.605Z,31.87
2023-05-21T08:55:34.810Z,31.98
2023-05-21T08:56:34.576Z,30.71
2023-05-21T08:57:34.579Z,30.34
2023-05-21T08:58:34.551Z,33.08
2023-05-21T08:59:34.557Z,30.16
2023-05-21T09:00:34.580Z,33.46
2023-05-21T09:01:34.539Z,34.13
2023-05-21T09:02:34.552Z,34.23
2023-05-21T09:03:34.506Z,33.78
2023-05-21T09:04:34.534Z,33.61
2023-05-21T09:05:34.494Z,30.59
2023-05-21T09:06:34.439Z,33.13
2023-05-21T09:07:34.433Z,30.61
2023-05-21T09:08:34.405Z,31.72
2023-05-21T09:09:34.396Z,33.00
2023-05-21T09:10:34.369Z,28.68
2023-05-21T09:11:34.380Z,32.35
2023-05-21T09:12:34.341Z,33.46
2023-05-21T09:13:35.393Z,31.70
2023-05-21T09:14:34.312Z,32.60
2023-05-21T09:15:34.430Z,35.39
2023-05-21T09:16:34.312Z,37.90
2023-05-21T09:17:34.329Z,36.01
2023-05-21T09:18:34.248Z,34.32
2023-05-21T09:19:34.356Z,35.37
2023-05-21T09:20:34.224Z,32.41
2023-05-21T09:21:34.236Z,33.20
2023-05-21T09:22:34.181Z,30.91
2023-05-21T09:23:34.161Z,34.00
2023-05-21T09:24:36.224Z,38.50
2023-05-21T09:25:34.140Z,38.62
2023-05-21T09:26:34.137Z,39.28
2023-05-21T09:27:34.096Z,38.92
2023-05-21T09:28:34.079Z,39.50
2023-05-21T09:29:34.133Z,37.95
2023-05-21T09:30:35.983Z,38.36
2023-05-21T09:31:34.105Z,38.54
2023-05-21T09:32:34.035Z,38.99
2023-05-21T09:33:34.005Z,40.10
2023-05-21T09:34:33.989Z,38.61
2023-05-21T09:35:34.509Z,40.19
2023-05-21T09:36:33.964Z,39.31
2023-05-21T09:37:33.941Z,37.27
2023-05-21T09:38:33.923Z,35.55
2023-05-21T09:39:33.908Z,34.60
2023-05-21T09:40:33.930Z,36.19
2023-05-21T09:41:33.872Z,35.75
2023-05-21T09:42:33.859Z,36.38
2023-05-21T09:43:33.840Z,37.05
2023-05-21T09:44:33.830Z,38.28
2023-05-21T09:45:33.826Z,33.63
2023-05-21T09:46:33.864Z,37.65
2023-05-21T09:47:33.878Z,38.83
2023-05-21T09:48:33.767Z,36.60
2023-05-21T09:49:33.772Z,39.99
2023-05-21T09:50:33.828Z,37.31
2023-05-21T09:51:33.728Z,38.51
2023-05-21T09:52:33.714Z,39.54
2023-05-21T09:53:33.699Z,34.90
2023-05-21T09:54:33.682Z,37.29
2023-05-21T09:55:33.670Z,35.92
2023-05-21T09:56:33.685Z,38.96
2023-05-21T09:57:33.667Z,36.59
2023-05-21T09:58:33.698Z,37.44
2023-05-21T09:59:33.732Z,35.08
2023-05-21T10:00:33.745Z,35.52
2023-05-21T10:01:33.782Z,36.60
2023-05-21T10:02:33.737Z,39.04
2023-05-21T10:03:33.660Z,38.23
2023-05-21T10:04:33.711Z,38.13
2023-05-21T10:05:33.642Z,37.17
2023-05-21T10:06:33.665Z,40.03
2023-05-21T10:07:33.626Z,39.40
2023-05-21T10:08:33.625Z,36.92
2023-05-21T10:09:33.667Z,40.81
2023-05-21T10:10:33.701Z,36.42
2023-05-21T10:11:33.658Z,40.27
2023-05-21T10:12:33.655Z,39.46
2023-05-21T10:13:33.638Z,37.61
2023-05-21T10:14:33.661Z,37.96
2023-05-21T10:15:33.680Z,39.23
2023-05-21T10:16:33.816Z,37.70
2023-05-21T10:17:33.713Z,38.27
2023-05-21T10:18:33.714Z,37.90
2023-05-21T10:19:33.835Z,37.84
2023-05-21T10:20:33.759Z,40.83
2023-05-21T10:21:33.797Z,37.93
2023-05-21T10:22:33.816Z,38.24
2023-05-21T10:23:33.807Z,39.08
2023-05-21T10:24:33.836Z,36.95
2023-05-21T10:25:33.867Z,36.32
2023-05-21T10:26:33.903Z,36.39
2023-05-21T10:27:33.927Z,39.49
2023-05-21T10:28:33.933Z,35.60
2023-05-21T10:29:33.957Z,39.81
2023-05-21T10:30:34.079Z,37.44
2023-05-21T10:31:33.979Z,37.81
2023-05-21T10:32:34.106Z,38.68
2023-05-21T10:33:34.029Z,38.07
2023-05-21T10:34:34.010Z,38.34
2023-05-21T10:35:34.084Z,41.35
2023-05-21T10:36:34.051Z,40.03
2023-05-21T10:37:34.071Z,39.87
2023-05-21T10:38:34.095Z,39.67
2023-05-21T10:39:34.098Z,42.82
2023-05-21T10:40:34.241Z,42.27
2023-05-21T10:41:34.159Z,38.14
2023-05-21T10:42:34.157Z,41.03
2023-05-21T10:43:34.158Z,43.11
2023-05-21T10:44:34.175Z,39.88
2023-05-21T10:45:34.161Z,41.33
2023-05-21T10:46:34.163Z,41.64
2023-05-21T10:47:34.186Z,40.75
2023-05-21T10:48:34.147Z,39.61
2023-05-21T10:49:34.149Z,40.59
2023-05-21T10:50:34.233Z,41.41
2023-05-21T10:51:34.181Z,41.12
2023-05-21T10:52:34.153Z,39.98
2023-05-21T10:53:34.189Z,41.95
2023-05-21T10:54:34.229Z,41.78
2023-05-21T10:55:34.248Z,41.13
2023-05-21T10:56:34.296Z,42.98
2023-05-21T10:57:34.304Z,41.34
2023-05-21T10:58:34.302Z,43.29
2023-05-21T10:59:34.293Z,41.02
2023-05-21T11:00:34.456Z,41.50
2023-05-21T11:01:34.384Z,43.01
2023-05-21T11:02:34.506Z,39.68
2023-05-21T11:03:36.694Z,41.24
2023-05-21T11:04:34.346Z,41.42
2023-05-21T11:05:34.325Z,41.74
2023-05-21T11:06:34.311Z,43.01
2023-05-21T11:07:34.417Z,43.33
2023-05-21T11:08:34.279Z,42.23
2023-05-21T11:09:34.263Z,41.33
2023-05-21T11:10:34.589Z,43.21
2023-05-21T11:11:34.224Z,46.32
2023-05-21T11:12:34.209Z,43.61
2023-05-21T11:13:34.192Z,46.13
2023-05-21T11:14:34.176Z,42.88
2023-05-21T11:15:34.162Z,43.82
2023-05-21T11:16:34.221Z,46.08
2023-05-21T11:17:34.137Z,42.26
2023-05-21T11:18:34.139Z,46.57
2023-05-21T11:19:34.413Z,49.02
2023-05-21T11:20:34.336Z,49.38
2023-05-21T11:21:34.040Z,46.27
2023-05-21T11:22:34.019Z,48.04
2023-05-21T11:23:34.035Z,46.00
2023-05-21T11:24:33.985Z,44.06
2023-05-21T11:25:33.973Z,46.48
2023-05-21T11:26:33.979Z,43.04
2023-05-21T11:27:33.978Z,42.64
2023-05-21T11:28:33.990Z,42.01
2023-05-21T11:29:34.024Z,44.33
2023-05-21T11:30:35.874Z,43.31
2023-05-21T11:31:34.091Z,46.54
2023-05-21T11:32:34.036Z,46.96
2023-05-21T11:33:33.983Z,45.67
2023-05-21T11:34:33.965Z,46.22
2023-05-21T11:35:33.953Z,44.19
2023-05-21T11:36:36.102Z,47.54
2023-05-21T11:37:33.897Z,47.64
2023-05-21T11:38:33.888Z,46.96
2023-05-21T11:39:33.931Z,47.55
2023-05-21T11:40:33.891Z,45.76
2023-05-21T11:41:33.837Z,46.14
2023-05-21T11:42:33.817Z,46.10
2023-05-21T11:43:33.821Z,46.57
2023-05-21T11:44:33.810Z,45.42
2023-05-21T11:45:33.797Z,48.68
2023-05-21T11:46:33.783Z,45.11
2023-05-21T11:47:33.829Z,48.69
2023-05-21T11:48:33.745Z,48.86
2023-05-21T11:49:33.727Z,45.85
2023-05-21T11:50:33.911Z,46.49
2023-05-21T11:51:33.704Z,44.70
2023-05-21T11:52:33.681Z,48.70
2023-05-21T11:53:33.670Z,48.23
2023-05-21T11:54:33.649Z,46.69
2023-05-21T11:55:33.654Z,48.43
2023-05-21T11:56:33.619Z,47.58
2023-05-21T11:57:33.600Z,47.15
2023-05-21T11:58:33.594Z,45.15
2023-05-21T11:59:33.576Z,46.72
2023-05-21T12:00:33.640Z,48.47
2023-05-21T12:01:33.560Z,46.91
2023-05-21T12:02:33.724Z,47.66
2023-05-21T12:03:33.774Z,48.07
2023-05-21T12:04:33.709Z,49.89
2023-05-21T12:05:33.784Z,48.34
2023-05-21T12:06:33.785Z,49.02
2023-05-21T12:07:33.828Z,47.68
2023-05-21T12:08:33.881Z,47.20
2023-05-21T12:09:33.940Z,47.27
2023-05-21T12:10:34.068Z,47.92
2023-05-21T12:11:34.048Z,48.35
2023-05-21T12:12:46.000Z,47.54
2023-05-21T12:13:34.031Z,47.81
2023-05-21T12:14:34.006Z,48.50
2023-05-21T12:15:33.996Z,49.48
2023-05-21T12:16:34.013Z,49.41
2023-05-21T12:17:33.963Z,50.70
2023-05-21T12:18:33.930Z,47.60
2023-05-21T12:19:33.974Z,47.83
2023-05-21T12:20:33.893Z,48.22
2023-05-21T12:21:33.893Z,49.60
2023-05-21T12:22:33.874Z,50.26
2023-05-21T12:23:33.848Z,48.89
2023-05-21T12:24:33.833Z,48.20
2023-05-21T12:25:33.820Z,48.92
2023-05-21T12:26:33.808Z,48.39
2023-05-21T12:27:35.168Z,48.29
2023-05-21T12:28:33.764Z,48.84
2023-05-21T12:29:33.750Z,49.17
2023-05-21T12:30:33.779Z,50.54
2023-05-21T12:31:33.812Z,48.12
2023-05-21T12:32:33.851Z,47.80
2023-05-21T12:33:33.850Z,48.68
2023-05-21T12:34:33.873Z,49.37
2023-05-21T12:35:33.918Z,48.21
2023-05-21T12:36:33.916Z,48.32
2023-05-21T12:37:33.943Z,49.23
2023-05-21T12:38:33.971Z,44.79
2023-05-21T12:39:33.987Z,47.06
2023-05-21T12:40:34.057Z,48.38
2023-05-21T12:41:34.103Z,47.35
2023-05-21T12:42:34.053Z,47.41
2023-05-21T12:43:34.113Z,50.44
2023-05-21T12:44:35.349Z,47.61
2023-05-21T12:45:34.092Z,52.20
2023-05-21T12:46:34.262Z,52.17
2023-05-21T12:47:34.102Z,49.35
2023-05-21T12:48:34.042Z,50.20
2023-05-21T12:49:34.013Z,48.58
2023-05-21T12:50:33.998Z,48.34
2023-05-21T12:51:33.986Z,48.69
2023-05-21T12:52:33.963Z,50.04